createdAt,value
2022-12-08T00:01:24.877Z,14.20
2022-12-08T00:03:53.289Z,13.80
2022-12-08T00:06:48.154Z,14.60
2022-12-08T00:09:38.994Z,13.10
2022-12-08T00:12:12.768Z,14.20
2022-12-08T00:14:46.126Z,15.30
2022-12-08T00:17:15.474Z,13.60
2022-12-08T00:19:42.902Z,15.80
2022-12-08T00:22:11.454Z,14.60
2022-12-08T00:24:40.110Z,15.60
2022-12-08T00:27:09.772Z,14.70
2022-12-08T00:29:36.643Z,15.10
2022-12-08T00:32:04.084Z,16.60
2022-12-08T00:34:31.921Z,16.20
2022-12-08T00:36:59.145Z,17.40
2022-12-08T00:39:25.915Z,18.30
2022-12-08T00:42:11.074Z,18.00
2022-12-08T00:44:42.215Z,18.70
2022-12-08T00:47:09.751Z,18.70
2022-12-08T00:49:36.433Z,19.30
2022-12-08T00:52:03.221Z,16.80
2022-12-08T00:54:30.242Z,19.40
2022-12-08T00:56:56.930Z,19.30
2022-12-08T00:59:23.572Z,19.40
2022-12-08T01:01:50.498Z,22.90
2022-12-08T01:04:19.093Z,22.70
2022-12-08T01:06:47.314Z,22.40
2022-12-08T01:09:15.757Z,22.90
2022-12-08T01:11:43.851Z,25.50
2022-12-08T01:14:11.691Z,24.50
2022-12-08T01:16:40.701Z,23.60
2022-12-08T01:19:09.977Z,22.70
2022-12-08T01:21:36.854Z,21.90
2022-12-08T01:24:04.015Z,21.20
2022-12-08T01:26:30.665Z,21.80
2022-12-08T01:28:57.374Z,22.50
2022-12-08T01:31:24.145Z,21.40
2022-12-08T01:33:50.888Z,22.90
2022-12-08T01:36:27.558Z,23.00
2022-12-08T01:38:57.829Z,21.40
2022-12-08T01:41:32.561Z,22.60
2022-12-08T01:44:07.511Z,21.90
2022-12-08T01:46:37.010Z,21.10
2022-12-08T01:49:21.111Z,21.90
2022-12-08T01:51:56.381Z,20.80
2022-12-08T01:54:28.300Z,21.90
2022-12-08T01:57:15.235Z,21.60
2022-12-08T01:59:49.425Z,21.10
2022-12-08T02:02:16.216Z,21.20
2022-12-08T02:04:42.918Z,20.70
2022-12-08T02:07:12.805Z,21.50
2022-12-08T02:09:40.961Z,20.50
2022-12-08T02:12:09.399Z,20.50
2022-12-08T02:14:36.448Z,18.90
2022-12-08T02:17:38.500Z,19.60
2022-12-08T02:20:24.731Z,20.40
2022-12-08T02:23:01.873Z,21.10
2022-12-08T02:26:13.407Z,20.30
2022-12-08T02:29:01.690Z,20.30
2022-12-08T02:31:59.096Z,20.30
2022-12-08T02:34:54.371Z,19.00
2022-12-08T02:37:55.552Z,18.60
2022-12-08T02:40:57.558Z,19.50
2022-12-08T02:43:48.395Z,16.90
2022-12-08T02:46:27.861Z,17.10
2022-12-08T02:48:55.568Z,16.90
2022-12-08T02:51:22.238Z,16.70
2022-12-08T02:53:49.145Z,17.10
2022-12-08T02:56:24.735Z,17.50
2022-12-08T02:59:25.373Z,17.40
2022-12-08T03:02:22.112Z,16.90
2022-12-08T03:05:52.432Z,17.90
2022-12-08T03:08:35.130Z,18.50
2022-12-08T03:11:24.491Z,17.80
2022-12-08T03:13:55.693Z,17.60
2022-12-08T03:16:26.862Z,17.60
2022-12-08T03:19:08.901Z,18.30
2022-12-08T03:21:38.245Z,18.10
2022-12-08T03:24:07.615Z,16.60
2022-12-08T03:26:45.641Z,17.40
2022-12-08T03:29:13.051Z,17.60
2022-12-08T03:31:46.163Z,17.60
2022-12-08T03:34:14.475Z,18.50
2022-12-08T03:36:41.200Z,16.70
2022-12-08T03:39:07.847Z,17.30
2022-12-08T03:41:34.919Z,16.90
2022-12-08T03:44:01.576Z,17.00
2022-12-08T03:48:57.189Z,16.10
2022-12-08T03:51:24.537Z,16.60
2022-12-08T03:53:51.194Z,16.10
2022-12-08T03:56:32.037Z,16.50
2022-12-08T03:58:59.557Z,16.90
2022-12-08T04:01:27.237Z,16.20
2022-12-08T04:03:54.204Z,17.30
2022-12-08T04:06:21.653Z,15.30
2022-12-08T04:08:49.756Z,16.80
2022-12-08T04:11:17.528Z,16.50
2022-12-08T04:13:45.372Z,17.30
2022-12-08T04:16:25.334Z,16.70
2022-12-08T04:18:52.098Z,16.60
2022-12-08T04:21:19.491Z,16.20
2022-12-08T04:23:47.033Z,16.50
2022-12-08T04:26:14.825Z,16.50
2022-12-08T04:28:41.707Z,18.10
2022-12-08T04:31:08.511Z,15.90
2022-12-08T04:33:35.261Z,15.80
2022-12-08T04:36:04.826Z,15.80
2022-12-08T04:38:32.106Z,16.40
2022-12-08T04:40:58.744Z,16.50
2022-12-08T04:43:25.397Z,16.70
2022-12-08T04:45:52.071Z,16.60
2022-12-08T04:48:18.746Z,16.00
2022-12-08T04:50:45.456Z,16.30
2022-12-08T04:53:13.622Z,16.00
2022-12-08T04:55:44.039Z,16.60
2022-12-08T04:58:16.887Z,18.00
2022-12-08T05:00:44.380Z,17.20
2022-12-08T05:03:11.692Z,17.40
2022-12-08T05:05:38.839Z,16.50
2022-12-08T05:08:06.458Z,15.60
2022-12-08T05:10:33.251Z,16.10
2022-12-08T05:12:59.938Z,16.70
2022-12-08T05:15:27.485Z,15.70
2022-12-08T05:17:54.481Z,16.30
2022-12-08T05:20:21.192Z,15.90
2022-12-08T05:22:47.933Z,16.10
2022-12-08T05:25:14.647Z,15.10
2022-12-08T05:27:42.390Z,14.90
2022-12-08T05:30:09.284Z,15.50
2022-12-08T05:32:35.979Z,15.00
2022-12-08T05:35:02.683Z,17.80
2022-12-08T05:37:29.347Z,16.20
2022-12-08T05:39:55.991Z,15.70
2022-12-08T05:42:24.929Z,15.50
2022-12-08T05:44:52.013Z,14.60
2022-12-08T05:47:18.962Z,14.50
2022-12-08T05:49:46.179Z,14.90
2022-12-08T05:52:12.909Z,15.10
2022-12-08T05:54:39.547Z,14.80
2022-12-08T05:57:06.245Z,14.80
2022-12-08T05:59:32.975Z,15.20
2022-12-08T06:01:59.974Z,17.20
2022-12-08T06:04:26.749Z,14.60
2022-12-08T06:06:53.443Z,14.60
2022-12-08T06:09:20.095Z,13.40
2022-12-08T06:11:46.968Z,15.80
2022-12-08T06:14:13.662Z,14.50
2022-12-08T06:16:40.528Z,13.90
2022-12-08T06:19:07.768Z,15.20
2022-12-08T06:21:34.492Z,14.80
2022-12-08T06:24:01.208Z,14.90
2022-12-08T06:26:28.297Z,15.00
2022-12-08T06:28:54.925Z,15.20
2022-12-08T06:31:24.990Z,16.30
2022-12-08T06:33:53.232Z,14.80
2022-12-08T06:36:24.062Z,14.60
2022-12-08T06:38:51.255Z,14.00
2022-12-08T06:41:18.358Z,16.30
2022-12-08T06:43:45.909Z,14.90
2022-12-08T06:46:16.871Z,15.10
2022-12-08T06:48:44.258Z,14.70
2022-12-08T06:51:18.490Z,14.60
2022-12-08T06:53:46.476Z,14.50
2022-12-08T06:56:15.191Z,14.30
2022-12-08T06:58:45.064Z,14.70
2022-12-08T07:01:15.642Z,15.40
2022-12-08T07:03:43.074Z,14.10
2022-12-08T07:06:24.211Z,14.30
2022-12-08T07:08:50.953Z,14.90
2022-12-08T07:11:21.942Z,14.40
2022-12-08T07:13:50.109Z,14.70
2022-12-08T07:16:16.864Z,14.20
2022-12-08T07:18:43.635Z,15.20
2022-12-08T07:21:14.258Z,14.00
2022-12-08T07:23:42.044Z,14.20
2022-12-08T07:26:11.115Z,14.20
2022-12-08T07:28:39.745Z,14.90
2022-12-08T07:31:08.395Z,14.90
2022-12-08T07:33:35.454Z,14.20
2022-12-08T07:36:05.009Z,14.50
2022-12-08T07:38:32.348Z,12.30
2022-12-08T07:41:00.514Z,13.20
2022-12-08T07:43:27.190Z,13.40
2022-12-08T07:45:53.963Z,12.50
2022-12-08T07:48:20.667Z,14.60
2022-12-08T07:50:47.448Z,12.50
2022-12-08T07:53:14.377Z,11.80
2022-12-08T07:55:42.750Z,12.60
2022-12-08T07:58:10.691Z,12.10
2022-12-08T08:00:37.858Z,12.40
2022-12-08T08:03:05.441Z,12.80
2022-12-08T08:05:32.163Z,12.90
2022-12-08T08:07:59.070Z,12.60
2022-12-08T08:10:25.833Z,12.90
2022-12-08T08:12:52.746Z,12.30
2022-12-08T08:15:20.507Z,13.00
2022-12-08T08:17:50.983Z,13.00
2022-12-08T08:20:19.266Z,11.90
2022-12-08T08:22:47.913Z,13.50
2022-12-08T08:25:15.881Z,11.50
2022-12-08T08:27:43.266Z,11.90
2022-12-08T08:30:18.139Z,12.10
2022-12-08T08:32:48.306Z,12.20
2022-12-08T08:35:15.567Z,12.00
2022-12-08T08:37:48.351Z,13.10
2022-12-08T08:40:17.355Z,11.50
2022-12-08T08:42:44.080Z,12.20
2022-12-08T08:45:11.003Z,12.30
2022-12-08T08:47:37.753Z,12.30
2022-12-08T08:50:05.634Z,12.70
2022-12-08T08:52:32.553Z,11.30
2022-12-08T08:54:59.220Z,11.50
2022-12-08T08:57:26.341Z,10.50
2022-12-08T08:59:53.498Z,10.60
2022-12-08T09:02:21.289Z,10.70
2022-12-08T09:04:48.152Z,11.30
2022-12-08T09:07:15.394Z,10.70
2022-12-08T09:09:42.681Z,11.00
2022-12-08T09:12:10.105Z,11.10
2022-12-08T09:14:36.858Z,11.90
2022-12-08T09:17:04.098Z,10.60
2022-12-08T09:19:31.084Z,9.80
2022-12-08T09:21:57.839Z,9.40
2022-12-08T09:24:24.558Z,9.90
2022-12-08T09:26:51.352Z,10.20
2022-12-08T09:29:18.041Z,10.20
2022-12-08T09:31:45.445Z,9.40
2022-12-08T09:34:13.411Z,9.70
2022-12-08T09:36:40.150Z,9.80
2022-12-08T09:39:07.250Z,10.10
2022-12-08T09:42:01.555Z,10.30
2022-12-08T09:44:50.157Z,10.30
2022-12-08T09:47:39.325Z,12.40
2022-12-08T09:50:12.123Z,12.00
2022-12-08T09:53:04.926Z,11.30
2022-12-08T09:55:46.537Z,11.10
2022-12-08T10:00:50.489Z,11.90
2022-12-08T10:03:18.100Z,12.40
2022-12-08T10:05:57.014Z,11.20
2022-12-08T10:08:33.268Z,13.30
2022-12-08T10:11:11.707Z,14.30
2022-12-08T10:13:58.707Z,12.80
2022-12-08T10:16:39.149Z,12.90
2022-12-08T10:19:16.826Z,12.00
2022-12-08T10:21:44.666Z,12.40
2022-12-08T10:24:22.892Z,12.40
2022-12-08T10:26:49.856Z,12.40
2022-12-08T10:29:17.033Z,12.20
2022-12-08T10:31:43.882Z,12.60
2022-12-08T10:34:23.737Z,12.30
2022-12-08T10:37:00.259Z,12.30
2022-12-08T10:39:43.133Z,13.20
2022-12-08T10:42:18.444Z,11.70
2022-12-08T10:44:55.125Z,11.10
2022-12-08T10:47:25.729Z,11.80
2022-12-08T10:50:27.834Z,12.70
2022-12-08T10:53:12.460Z,13.60
2022-12-08T10:55:46.355Z,11.70
2022-12-08T10:58:36.549Z,11.70
2022-12-08T11:01:26.356Z,11.90
2022-12-08T11:04:02.826Z,12.40
2022-12-08T11:06:40.465Z,12.20
2022-12-08T11:09:30.061Z,13.00
2022-12-08T11:12:00.226Z,12.70
2022-12-08T11:14:30.864Z,12.20
2022-12-08T11:17:11.443Z,13.30
2022-12-08T11:20:06.037Z,12.80
2022-12-08T11:22:39.137Z,11.80
2022-12-08T11:25:14.404Z,12.20
2022-12-08T11:27:45.341Z,12.90
2022-12-08T11:30:17.353Z,14.20
2022-12-08T11:32:48.841Z,13.30
2022-12-08T11:35:55.407Z,12.50
2022-12-08T11:38:25.200Z,13.90
2022-12-08T11:40:58.490Z,13.70
2022-12-08T11:43:45.626Z,14.10
2022-12-08T11:46:20.488Z,13.50
2022-12-08T11:49:02.725Z,13.20
2022-12-08T11:52:04.636Z,14.40
2022-12-08T11:54:42.104Z,14.00
2022-12-08T11:57:15.820Z,13.50
2022-12-08T11:59:46.215Z,14.70
2022-12-08T12:02:23.969Z,14.70
2022-12-08T12:05:04.920Z,15.10
2022-12-08T12:08:08.752Z,13.90
2022-12-08T12:10:50.306Z,15.10
2022-12-08T12:13:35.334Z,12.40
2022-12-08T12:16:54.821Z,13.60
2022-12-08T12:19:23.201Z,13.30
2022-12-08T12:21:55.381Z,14.60
2022-12-08T12:24:35.431Z,13.40
2022-12-08T12:27:14.731Z,14.20
2022-12-08T12:30:05.253Z,13.20
2022-12-08T12:32:45.105Z,13.00
2022-12-08T12:35:27.144Z,13.60
2022-12-08T12:38:01.918Z,14.10
2022-12-08T12:40:39.223Z,12.30
2022-12-08T12:43:05.807Z,12.80
2022-12-08T12:45:34.054Z,13.50
2022-12-08T12:48:00.793Z,12.70
2022-12-08T12:50:51.545Z,13.60
2022-12-08T12:53:18.401Z,14.60
2022-12-08T12:55:44.998Z,14.00
2022-12-08T12:58:41.935Z,14.20
2022-12-08T13:01:14.640Z,12.90
2022-12-08T13:03:46.637Z,15.30
2022-12-08T13:06:22.431Z,13.80
2022-12-08T13:08:52.288Z,13.90
2022-12-08T13:11:20.333Z,12.70
2022-12-08T13:14:03.110Z,14.00
2022-12-08T13:16:39.021Z,12.10
2022-12-08T13:19:14.238Z,12.40
2022-12-08T13:21:41.116Z,13.80
2022-12-08T13:24:13.705Z,13.80
2022-12-08T13:26:45.741Z,14.80
2022-12-08T13:29:25.922Z,12.80
2022-12-08T13:32:00.176Z,12.50
2022-12-08T13:34:54.854Z,12.90
2022-12-08T13:37:53.966Z,13.70
2022-12-08T13:40:25.744Z,12.90
2022-12-08T13:43:18.188Z,12.70
2022-12-08T13:46:52.547Z,13.30
2022-12-08T13:50:30.718Z,14.00
2022-12-08T13:53:34.956Z,13.40
2022-12-08T13:55:26.863Z,13.40
2022-12-08T13:57:33.971Z,14.60
2022-12-08T14:00:16.637Z,12.80
2022-12-08T14:02:48.535Z,13.50
2022-12-08T14:05:20.425Z,14.00
2022-12-08T14:07:54.731Z,13.80
2022-12-08T14:10:28.633Z,14.30
2022-12-08T14:13:01.128Z,12.80
2022-12-08T14:15:32.550Z,12.80
2022-12-08T14:18:02.682Z,13.40
2022-12-08T14:20:33.843Z,13.50
2022-12-08T14:23:09.377Z,12.80
2022-12-08T14:25:38.166Z,12.90
2022-12-08T14:28:05.074Z,12.80
2022-12-08T14:30:33.048Z,13.60
2022-12-08T14:33:03.653Z,14.00
2022-12-08T14:35:37.163Z,13.50
2022-12-08T14:38:16.849Z,13.70
2022-12-08T14:41:00.323Z,12.90
2022-12-08T14:43:29.111Z,13.80
2022-12-08T14:46:05.524Z,13.00
2022-12-08T14:48:37.798Z,13.80
2022-12-08T14:51:20.347Z,13.70
2022-12-08T14:53:53.320Z,12.90
2022-12-08T14:56:51.920Z,13.40
2022-12-08T14:59:30.666Z,13.20
2022-12-08T15:02:15.780Z,13.40
2022-12-08T15:04:45.569Z,14.10
2022-12-08T15:07:21.870Z,14.20
2022-12-08T15:10:13.374Z,14.10
2022-12-08T15:12:56.138Z,13.40
2022-12-08T15:15:23.361Z,13.40
2022-12-08T15:18:00.529Z,12.90
2022-12-08T15:20:44.535Z,13.20
2022-12-08T15:23:21.021Z,11.80
2022-12-08T15:25:49.174Z,11.80
2022-12-08T15:28:26.655Z,13.50
2022-12-08T15:30:57.074Z,12.70
2022-12-08T15:33:23.883Z,13.80
2022-12-08T15:35:51.382Z,12.40
2022-12-08T15:38:28.249Z,15.00
2022-12-08T15:40:57.996Z,13.20
2022-12-08T15:43:24.785Z,14.20
2022-12-08T15:45:58.926Z,12.50
2022-12-08T15:48:29.532Z,13.10
2022-12-08T15:50:56.714Z,13.50
2022-12-08T15:53:23.565Z,13.20
2022-12-08T15:56:18.978Z,14.60
2022-12-08T15:58:54.636Z,12.90
2022-12-08T16:01:23.129Z,12.90
2022-12-08T16:09:38.868Z,13.20
2022-12-08T16:13:26.668Z,12.90
2022-12-08T16:15:51.216Z,14.10
2022-12-08T16:18:16.786Z,13.30
2022-12-08T16:21:08.059Z,12.40
2022-12-08T16:23:45.985Z,12.50
2022-12-08T16:26:28.927Z,13.10
2022-12-08T16:29:04.630Z,13.20
2022-12-08T16:31:31.431Z,12.90
2022-12-08T16:33:58.161Z,12.70
2022-12-08T16:36:24.889Z,12.70
2022-12-08T16:38:51.640Z,12.90
2022-12-08T16:41:36.938Z,15.20
2022-12-08T16:44:05.776Z,13.10
2022-12-08T16:46:32.990Z,13.20
2022-12-08T16:48:59.835Z,13.00
2022-12-08T16:51:27.555Z,12.80
2022-12-08T16:53:56.275Z,13.60
2022-12-08T16:56:28.787Z,13.10
2022-12-08T16:58:55.708Z,12.70
2022-12-08T17:01:23.080Z,14.90
2022-12-08T17:04:14.201Z,13.00
2022-12-08T17:06:36.570Z,12.60
2022-12-08T17:09:03.886Z,12.40
2022-12-08T17:11:34.826Z,13.50
2022-12-08T17:14:04.384Z,13.30
2022-12-08T17:16:31.152Z,13.90
2022-12-08T17:18:58.128Z,13.10
2022-12-08T17:21:25.229Z,13.60
2022-12-08T17:23:52.097Z,12.70
2022-12-08T17:26:18.810Z,13.10
2022-12-08T17:29:00.618Z,16.50
2022-12-08T17:31:31.317Z,15.30
2022-12-08T17:34:03.596Z,12.40
2022-12-08T17:36:31.148Z,19.90
2022-12-08T17:38:59.078Z,13.70
2022-12-08T17:41:26.047Z,14.40
2022-12-08T17:43:52.732Z,14.30
2022-12-08T17:46:21.208Z,15.20
2022-12-08T17:48:48.354Z,15.30
2022-12-08T17:51:15.899Z,16.30
2022-12-08T17:53:43.333Z,16.40
2022-12-08T17:56:19.952Z,16.50
2022-12-08T17:58:52.619Z,15.90
2022-12-08T18:01:22.765Z,14.80
2022-12-08T18:03:50.355Z,13.20
2022-12-08T18:06:17.114Z,12.60
2022-12-08T18:08:44.297Z,13.10
2022-12-08T18:11:15.689Z,13.40
2022-12-08T18:16:09.742Z,11.80
2022-12-08T18:18:36.506Z,14.30
2022-12-08T18:21:03.742Z,13.60
2022-12-08T18:23:30.742Z,15.50
2022-12-08T18:25:58.029Z,19.40
2022-12-08T18:28:24.949Z,17.90
2022-12-08T18:30:51.740Z,13.20
2022-12-08T18:33:18.517Z,14.20
2022-12-08T18:35:45.202Z,13.60
2022-12-08T18:38:11.907Z,14.20
2022-12-08T18:40:38.751Z,14.80
2022-12-08T18:43:05.406Z,14.30
2022-12-08T18:45:36.032Z,15.00
2022-12-08T18:48:03.063Z,14.60
2022-12-08T18:50:29.933Z,16.20
2022-12-08T18:52:56.700Z,14.10
2022-12-08T18:55:23.449Z,15.80
2022-12-08T18:57:50.340Z,14.40
2022-12-08T19:00:18.879Z,14.00
2022-12-08T19:02:45.789Z,14.30
2022-12-08T19:05:13.686Z,14.30
2022-12-08T19:07:41.870Z,14.60
2022-12-08T19:10:09.953Z,14.20
2022-12-08T19:12:36.862Z,14.30
2022-12-08T19:15:04.659Z,13.00
2022-12-08T19:17:31.951Z,12.80
2022-12-08T19:19:58.711Z,13.60
2022-12-08T19:22:25.511Z,12.90
2022-12-08T19:24:52.281Z,13.70
2022-12-08T19:27:19.130Z,12.30
2022-12-08T19:29:46.156Z,13.50
2022-12-08T19:32:12.809Z,13.30
2022-12-08T19:34:39.690Z,13.70
2022-12-08T19:37:08.208Z,12.70
2022-12-08T19:39:53.882Z,13.60
2022-12-08T19:42:39.157Z,13.50
2022-12-08T19:45:20.616Z,13.10
2022-12-08T19:47:48.309Z,13.80
2022-12-08T19:50:34.818Z,14.80
2022-12-08T19:53:13.163Z,12.30
2022-12-08T19:55:42.465Z,15.60
2022-12-08T19:58:09.858Z,13.10
2022-12-08T20:00:39.077Z,13.70
2022-12-08T20:03:06.256Z,13.90
2022-12-08T20:05:35.809Z,13.50
2022-12-08T20:08:02.732Z,14.00
2022-12-08T20:10:35.470Z,13.30
2022-12-08T20:13:32.551Z,13.10
2022-12-08T20:15:59.309Z,13.80
2022-12-08T20:18:27.892Z,12.90
2022-12-08T20:20:54.833Z,12.20
2022-12-08T20:23:21.652Z,12.90
2022-12-08T20:25:48.361Z,12.70
2022-12-08T20:28:15.119Z,12.60
2022-12-08T20:30:43.296Z,13.00
2022-12-08T20:33:13.157Z,12.60
2022-12-08T20:35:40.419Z,12.70
2022-12-08T20:38:07.706Z,13.50
2022-12-08T20:40:34.414Z,13.40
2022-12-08T20:43:01.153Z,14.10
2022-12-08T20:45:27.837Z,13.50
2022-12-08T20:47:54.583Z,14.10
2022-12-08T20:50:21.606Z,12.30
2022-12-08T20:52:48.277Z,14.20
2022-12-08T20:55:15.101Z,12.90
2022-12-08T20:57:41.818Z,13.10
2022-12-08T21:00:10.478Z,14.10
2022-12-08T21:02:41.670Z,14.60
2022-12-08T21:05:12.189Z,13.30
2022-12-08T21:07:39.022Z,13.70
2022-12-08T21:10:07.305Z,14.10
2022-12-08T21:12:34.365Z,13.00
2022-12-08T21:15:01.560Z,14.00
2022-12-08T21:17:28.574Z,13.80
2022-12-08T21:19:55.479Z,13.90
2022-12-08T21:22:22.354Z,14.00
2022-12-08T21:24:49.333Z,15.50
2022-12-08T21:27:16.162Z,15.30
2022-12-08T21:29:42.898Z,15.60
2022-12-08T21:32:09.845Z,17.60
2022-12-08T21:34:36.735Z,15.50
2022-12-08T21:37:03.500Z,16.50
2022-12-08T21:39:30.469Z,16.30
2022-12-08T21:42:16.239Z,17.30
2022-12-08T21:44:43.244Z,17.20
2022-12-08T21:47:10.086Z,17.00
2022-12-08T21:49:37.056Z,17.00
2022-12-08T21:52:04.008Z,17.90
2022-12-08T21:54:30.901Z,17.50
2022-12-08T21:56:57.747Z,18.10
2022-12-08T21:59:24.495Z,17.60
2022-12-08T22:01:51.492Z,18.90
2022-12-08T22:04:20.842Z,17.60
2022-12-08T22:06:48.084Z,19.30
2022-12-08T22:09:15.234Z,19.70
2022-12-08T22:11:43.289Z,18.90
2022-12-08T22:14:14.383Z,16.80
2022-12-08T22:16:43.226Z,18.20
2022-12-08T22:19:10.217Z,17.50
2022-12-08T22:21:37.764Z,18.20
2022-12-08T22:24:05.298Z,18.40
2022-12-08T22:26:32.243Z,18.00
2022-12-08T22:28:59.721Z,18.80
2022-12-08T22:31:27.317Z,16.90
2022-12-08T22:33:54.464Z,18.10
2022-12-08T22:36:24.158Z,19.50
2022-12-08T22:38:52.388Z,18.70
2022-12-08T22:41:20.482Z,19.00
2022-12-08T22:43:48.280Z,17.60
2022-12-08T22:46:19.937Z,19.70
2022-12-08T22:48:47.410Z,17.60
2022-12-08T22:51:15.105Z,18.10
2022-12-08T22:53:43.430Z,16.70
2022-12-08T22:56:12.965Z,18.00
2022-12-08T22:58:41.319Z,17.30
2022-12-08T23:01:08.503Z,17.60
2022-12-08T23:03:35.387Z,17.50
2022-12-08T23:06:02.378Z,16.80
2022-12-08T23:08:29.353Z,17.80
2022-12-08T23:10:57.104Z,18.10
2022-12-08T23:13:23.891Z,17.60
2022-12-08T23:15:50.643Z,17.60
2022-12-08T23:18:18.547Z,17.30
2022-12-08T23:20:46.532Z,16.60
2022-12-08T23:23:13.893Z,17.50
2022-12-08T23:25:41.736Z,17.30
2022-12-08T23:28:09.304Z,16.50
2022-12-08T23:30:38.880Z,16.70
2022-12-08T23:33:05.683Z,15.60
2022-12-08T23:35:32.431Z,17.00
2022-12-08T23:37:59.218Z,16.60
2022-12-08T23:40:26.073Z,15.80
2022-12-08T23:42:53.041Z,14.00
2022-12-08T23:45:19.737Z,15.30
2022-12-08T23:47:46.575Z,13.40
2022-12-08T23:50:13.265Z,13.70
2022-12-08T23:52:40.257Z,13.50
2022-12-08T23:55:07.860Z,13.60
2022-12-08T23:57:35.641Z,12.20
